createdAt,value
2023-06-04T00:04:47.097Z,100.00
2023-06-04T00:11:10.505Z,100.00
2023-06-04T00:17:53.393Z,100.00
2023-06-04T00:25:07.427Z,100.00
2023-06-04T00:32:01.571Z,100.00
2023-06-04T00:42:14.458Z,100.00
2023-06-04T00:57:02.166Z,100.00
2023-06-04T01:07:19.999Z,100.00
2023-06-04T01:26:13.177Z,100.00
2023-06-04T01:32:27.880Z,100.00
2023-06-04T01:39:43.123Z,100.00
2023-06-04T01:46:34.339Z,100.00
2023-06-04T01:52:58.866Z,100.00
2023-06-04T01:59:08.714Z,100.00
2023-06-04T02:05:29.691Z,100.00
2023-06-04T02:11:50.539Z,100.00
2023-06-04T02:18:38.314Z,100.00
2023-06-04T02:24:54.451Z,100.00
2023-06-04T02:31:18.268Z,100.00
2023-06-04T02:33:44.884Z,100.00
2023-06-04T02:36:11.452Z,100.00
2023-06-04T02:39:04.019Z,100.00
2023-06-04T02:45:30.593Z,100.00
2023-06-04T02:51:45.009Z,100.00
2023-06-04T02:58:01.751Z,100.00
2023-06-04T03:04:17.489Z,100.00
2023-06-04T03:10:32.290Z,100.00
2023-06-04T03:17:21.722Z,100.00
2023-06-04T03:23:30.545Z,100.00
2023-06-04T03:30:07.710Z,100.00
2023-06-04T03:36:46.331Z,100.00
2023-06-04T03:42:50.503Z,100.00
2023-06-04T03:45:17.254Z,100.00
2023-06-04T03:47:43.951Z,100.00
2023-06-04T03:50:21.508Z,100.00
2023-06-04T03:56:37.499Z,100.00
2023-06-04T04:03:23.497Z,100.00
2023-06-04T04:10:00.411Z,100.00
2023-06-04T04:21:28.280Z,100.00
2023-06-04T04:29:01.109Z,100.00
2023-06-04T04:36:20.085Z,100.00
2023-06-04T04:42:47.515Z,100.00
2023-06-04T04:49:04.538Z,100.00
2023-06-04T04:55:30.525Z,100.00
2023-06-04T05:01:49.608Z,100.00
2023-06-04T05:08:20.540Z,100.00
2023-06-04T05:10:47.099Z,100.00
2023-06-04T05:13:13.680Z,100.00
2023-06-04T05:19:34.044Z,100.00
2023-06-04T05:22:52.734Z,100.00
2023-06-04T05:29:06.720Z,100.00
2023-06-04T05:35:21.192Z,100.00
2023-06-04T05:41:37.003Z,100.00
2023-06-04T05:44:04.183Z,100.00
2023-06-04T05:46:30.990Z,100.00
2023-06-04T05:49:09.511Z,98.58
2023-06-04T05:55:26.542Z,96.03
2023-06-04T06:02:04.509Z,89.34
2023-06-04T06:08:19.583Z,83.98
2023-06-04T06:14:39.521Z,80.53
2023-06-04T06:21:11.717Z,73.20
2023-06-04T06:23:47.738Z,72.71
2023-06-04T06:26:14.833Z,68.54
2023-06-04T06:28:41.489Z,68.18
2023-06-04T06:31:08.547Z,68.88
2023-06-04T06:33:37.932Z,67.65
2023-06-04T06:36:04.586Z,68.17
2023-06-04T06:38:32.826Z,67.52
2023-06-04T06:40:59.402Z,67.74
2023-06-04T06:43:25.997Z,66.45
2023-06-04T06:45:52.586Z,65.67
2023-06-04T06:48:19.192Z,62.63
2023-06-04T06:50:45.737Z,65.46
2023-06-04T06:53:12.323Z,62.59
2023-06-04T06:55:39.104Z,62.86
2023-06-04T06:58:05.664Z,63.52
2023-06-04T07:00:32.343Z,60.28
2023-06-04T07:02:59.220Z,61.32
2023-06-04T07:05:25.954Z,54.67
2023-06-04T07:07:53.267Z,55.27
2023-06-04T07:10:19.956Z,58.21
2023-06-04T07:12:46.546Z,53.63
2023-06-04T07:15:13.432Z,51.20
2023-06-04T07:17:40.084Z,49.71
2023-06-04T07:20:08.400Z,45.23
2023-06-04T07:22:35.712Z,50.15
2023-06-04T07:25:02.448Z,46.74
2023-06-04T07:27:29.238Z,46.95
2023-06-04T07:29:55.977Z,45.99
2023-06-04T07:32:22.691Z,47.36
2023-06-04T07:34:49.311Z,47.88
2023-06-04T07:37:16.546Z,42.63
2023-06-04T07:39:43.134Z,40.81
2023-06-04T07:42:09.818Z,46.55
2023-06-04T07:44:38.016Z,42.56
2023-06-04T07:47:04.836Z,43.25
2023-06-04T07:49:31.414Z,42.29
2023-06-04T07:51:58.625Z,40.84
2023-06-04T07:54:25.482Z,43.67
2023-06-04T07:56:56.837Z,44.96
2023-06-04T07:59:24.146Z,43.34
2023-06-04T08:01:52.573Z,40.33
2023-06-04T08:04:19.850Z,38.90
2023-06-04T08:06:47.614Z,39.22
2023-06-04T08:09:14.685Z,40.15
2023-06-04T08:11:43.853Z,41.66
2023-06-04T08:14:14.162Z,39.71
2023-06-04T08:16:41.812Z,40.56
2023-06-04T08:19:09.060Z,39.98
2023-06-04T08:21:35.829Z,40.36
2023-06-04T08:24:03.290Z,37.60
2023-06-04T08:26:29.973Z,38.26
2023-06-04T08:28:56.652Z,37.06
2023-06-04T08:31:23.260Z,36.25
2023-06-04T08:33:49.908Z,39.83
2023-06-04T08:36:17.325Z,37.95
2023-06-04T08:38:47.180Z,36.08
2023-06-04T08:41:31.173Z,37.62
2023-06-04T08:44:03.357Z,37.76
2023-06-04T08:46:33.018Z,38.14
2023-06-04T08:49:04.889Z,35.53
2023-06-04T08:51:34.836Z,37.86
2023-06-04T08:54:01.546Z,32.13
2023-06-04T08:56:29.915Z,32.31
2023-06-04T08:58:58.480Z,33.56
2023-06-04T09:01:25.279Z,33.11
2023-06-04T09:03:52.398Z,33.46
2023-06-04T09:06:19.089Z,31.50
2023-06-04T09:08:51.223Z,32.58
2023-06-04T09:11:24.983Z,34.27
2023-06-04T09:13:52.428Z,32.76
2023-06-04T09:16:19.048Z,31.62
2023-06-04T09:18:46.121Z,32.06
2023-06-04T09:21:12.684Z,33.42
2023-06-04T09:23:46.451Z,31.69
2023-06-04T09:26:13.405Z,32.95
2023-06-04T09:28:44.052Z,32.55
2023-06-04T09:31:23.078Z,32.44
2023-06-04T09:33:51.248Z,37.22
2023-06-04T09:36:18.402Z,32.67
2023-06-04T09:38:45.140Z,31.81
2023-06-04T09:41:16.823Z,33.61
2023-06-04T09:43:44.902Z,34.32
2023-06-04T09:46:16.686Z,33.54
2023-06-04T09:48:44.674Z,36.01
2023-06-04T09:51:13.166Z,33.00
2023-06-04T09:53:40.255Z,32.57
2023-06-04T09:56:07.694Z,31.55
2023-06-04T09:58:34.929Z,31.70
2023-06-04T10:01:06.772Z,32.35
2023-06-04T10:03:36.335Z,29.96
2023-06-04T10:06:07.326Z,30.34
2023-06-04T10:08:35.258Z,29.43
2023-06-04T10:11:03.210Z,27.11
2023-06-04T10:13:47.016Z,27.55
2023-06-04T10:16:25.016Z,26.51
2023-06-04T10:18:56.953Z,25.45
2023-06-04T10:21:24.831Z,23.06
2023-06-04T10:23:51.702Z,23.92
2023-06-04T10:26:18.419Z,22.45
2023-06-04T10:28:45.172Z,22.47
2023-06-04T10:31:12.280Z,23.84
2023-06-04T10:33:40.226Z,22.35
2023-06-04T10:36:21.118Z,20.36
2023-06-04T10:38:56.234Z,18.85
2023-06-04T10:41:24.390Z,19.48
2023-06-04T10:43:52.436Z,19.26
2023-06-04T10:46:21.001Z,17.05
2023-06-04T10:48:51.792Z,17.75
2023-06-04T10:51:31.869Z,17.61
2023-06-04T10:54:02.697Z,17.02
2023-06-04T10:56:30.701Z,17.89
2023-06-04T10:58:57.291Z,16.91
2023-06-04T11:01:28.204Z,16.82
2023-06-04T11:03:55.274Z,17.97
2023-06-04T11:06:23.459Z,16.72
2023-06-04T11:08:50.056Z,16.88
2023-06-04T11:11:17.091Z,17.00
2023-06-04T11:13:44.405Z,17.66
2023-06-04T11:16:19.507Z,16.51
2023-06-04T11:18:59.970Z,14.52
2023-06-04T11:21:28.010Z,15.89
2023-06-04T11:24:01.924Z,17.73
2023-06-04T11:26:37.296Z,17.92
2023-06-04T11:29:13.127Z,16.30
2023-06-04T11:31:48.081Z,16.50
2023-06-04T11:34:28.458Z,16.94
2023-06-04T11:36:55.111Z,17.40
2023-06-04T11:39:22.659Z,16.94
2023-06-04T11:41:51.642Z,16.34
2023-06-04T11:44:21.462Z,16.28
2023-06-04T11:46:49.897Z,15.22
2023-06-04T11:49:17.346Z,16.93
2023-06-04T11:51:51.711Z,15.90
2023-06-04T11:54:19.256Z,16.40
2023-06-04T11:56:46.275Z,16.73
2023-06-04T11:59:17.121Z,17.42
2023-06-04T12:01:44.813Z,15.79
2023-06-04T12:04:14.837Z,16.81
2023-06-04T12:07:02.714Z,15.89
2023-06-04T12:09:36.112Z,16.98
2023-06-04T12:12:04.268Z,15.33
2023-06-04T12:14:31.630Z,14.43
2023-06-04T12:16:59.426Z,14.74
2023-06-04T12:19:27.395Z,14.87
2023-06-04T12:22:08.024Z,15.99
2023-06-04T12:24:46.814Z,16.43
2023-06-04T12:27:13.392Z,16.00
2023-06-04T12:29:39.973Z,14.61
2023-06-04T12:32:12.506Z,13.50
2023-06-04T12:34:40.077Z,12.29
2023-06-04T12:37:07.714Z,12.59
2023-06-04T12:39:40.208Z,12.95
2023-06-04T12:42:07.987Z,13.80
2023-06-04T12:44:36.019Z,11.41
2023-06-04T12:47:03.309Z,11.31
2023-06-04T12:49:29.931Z,11.94
2023-06-04T12:51:56.608Z,10.37
2023-06-04T12:54:23.304Z,11.49
2023-06-04T12:56:50.244Z,10.64
2023-06-04T12:59:17.056Z,10.58
2023-06-04T13:01:43.760Z,10.65
2023-06-04T13:04:10.806Z,11.17
2023-06-04T13:06:38.087Z,11.15
2023-06-04T13:09:09.884Z,11.56
2023-06-04T13:11:46.182Z,12.68
2023-06-04T13:14:12.895Z,15.30
2023-06-04T13:16:39.845Z,15.60
2023-06-04T13:19:07.070Z,17.63
2023-06-04T13:21:33.841Z,17.02
2023-06-04T13:24:00.545Z,18.88
2023-06-04T13:26:27.140Z,18.27
2023-06-04T13:28:53.896Z,19.36
2023-06-04T13:31:20.516Z,21.01
2023-06-04T13:33:47.161Z,19.49
2023-06-04T13:36:13.811Z,19.39
2023-06-04T13:38:42.352Z,19.93
2023-06-04T13:41:09.297Z,19.93
2023-06-04T13:43:36.014Z,21.06
2023-06-04T13:46:02.610Z,20.24
2023-06-04T13:48:29.253Z,21.45
2023-06-04T13:50:55.843Z,23.57
2023-06-04T13:53:22.423Z,22.73
2023-06-04T13:55:49.124Z,22.71
2023-06-04T13:58:16.450Z,22.33
2023-06-04T14:00:43.090Z,23.42
2023-06-04T14:03:09.735Z,24.28
2023-06-04T14:05:36.361Z,24.81
2023-06-04T14:08:03.972Z,26.32
2023-06-04T14:10:30.702Z,25.30
2023-06-04T14:12:57.277Z,23.84
2023-06-04T14:15:24.122Z,22.65
2023-06-04T14:17:50.766Z,21.82
2023-06-04T14:20:17.377Z,22.02
2023-06-04T14:22:43.981Z,22.57
2023-06-04T14:25:10.887Z,20.90
2023-06-04T14:27:37.513Z,20.24
2023-06-04T14:30:05.207Z,22.01
2023-06-04T14:32:33.176Z,24.25
2023-06-04T14:34:59.820Z,25.70
2023-06-04T14:37:26.581Z,26.81
2023-06-04T14:39:53.158Z,27.83
2023-06-04T14:42:19.765Z,27.98
2023-06-04T14:44:47.022Z,26.79
2023-06-04T14:47:13.755Z,28.11
2023-06-04T14:49:40.828Z,26.93
2023-06-04T14:52:07.534Z,27.93
2023-06-04T14:54:35.838Z,29.34
2023-06-04T14:57:03.010Z,29.62
2023-06-04T14:59:29.742Z,29.98
2023-06-04T15:01:56.461Z,27.86
2023-06-04T15:04:23.765Z,27.39
2023-06-04T15:06:50.887Z,30.75
2023-06-04T15:09:17.416Z,29.99
2023-06-04T15:11:44.117Z,30.35
2023-06-04T15:14:10.721Z,31.18
2023-06-04T15:16:37.324Z,28.47
2023-06-04T15:19:04.280Z,28.01
2023-06-04T15:21:31.038Z,27.79
2023-06-04T15:23:57.652Z,29.19
2023-06-04T15:26:25.983Z,29.40
2023-06-04T15:28:52.844Z,28.42
2023-06-04T15:31:19.525Z,27.49
2023-06-04T15:33:46.247Z,26.95
2023-06-04T15:36:12.853Z,30.31
2023-06-04T15:38:39.411Z,28.80
2023-06-04T15:41:06.286Z,28.80
2023-06-04T15:43:32.931Z,27.86
2023-06-04T15:45:59.562Z,28.01
2023-06-04T15:48:28.634Z,29.44
2023-06-04T15:50:55.263Z,30.68
2023-06-04T15:53:23.809Z,30.70
2023-06-04T15:55:51.316Z,31.34
2023-06-04T15:58:18.000Z,31.64
2023-06-04T16:00:44.678Z,32.25
2023-06-04T16:03:11.373Z,31.95
2023-06-04T16:05:38.055Z,31.90
2023-06-04T16:08:04.952Z,30.62
2023-06-04T16:10:33.010Z,31.18
2023-06-04T16:12:59.606Z,30.08
2023-06-04T16:15:26.162Z,32.21
2023-06-04T16:17:52.760Z,33.29
2023-06-04T16:20:20.127Z,33.69
2023-06-04T16:22:47.145Z,33.70
2023-06-04T16:25:18.430Z,34.70
2023-06-04T16:27:48.009Z,34.49
2023-06-04T16:30:15.024Z,33.98
2023-06-04T16:32:41.720Z,34.47
2023-06-04T16:35:10.434Z,34.18
2023-06-04T16:37:40.149Z,34.11
2023-06-04T16:40:07.661Z,35.22
2023-06-04T16:42:34.495Z,34.93
2023-06-04T16:45:01.560Z,34.57
2023-06-04T16:47:28.329Z,35.15
2023-06-04T16:49:55.937Z,35.71
2023-06-04T16:52:22.553Z,35.87
2023-06-04T16:54:49.160Z,35.10
2023-06-04T16:57:15.832Z,33.96
2023-06-04T16:59:46.612Z,34.58
2023-06-04T17:02:14.407Z,34.11
2023-06-04T17:04:42.049Z,33.91
2023-06-04T17:07:08.778Z,34.56
2023-06-04T17:09:35.450Z,34.12
2023-06-04T17:12:02.053Z,32.90
2023-06-04T17:14:28.678Z,33.12
2023-06-04T17:16:55.322Z,33.83
2023-06-04T17:19:22.361Z,34.69
2023-06-04T17:21:48.893Z,35.51
2023-06-04T17:24:15.745Z,35.49
2023-06-04T17:26:42.366Z,35.70
2023-06-04T17:29:09.078Z,35.66
2023-06-04T17:31:35.673Z,36.84
2023-06-04T17:34:02.299Z,37.31
2023-06-04T17:36:28.970Z,37.30
2023-06-04T17:38:55.629Z,38.58
2023-06-04T17:41:22.167Z,37.60
2023-06-04T17:43:48.730Z,37.50
2023-06-04T17:46:15.523Z,37.55
2023-06-04T17:48:42.294Z,38.29
2023-06-04T17:51:08.849Z,38.20
2023-06-04T17:53:35.411Z,38.48
2023-06-04T17:56:02.355Z,38.57
2023-06-04T17:58:30.251Z,38.89
2023-06-04T18:00:57.754Z,38.92
2023-06-04T18:03:24.426Z,38.61
2023-06-04T18:05:51.164Z,38.70
2023-06-04T18:08:17.757Z,38.78
2023-06-04T18:10:44.377Z,39.45
2023-06-04T18:13:12.062Z,39.90
2023-06-04T18:15:38.636Z,38.96
2023-06-04T18:18:05.355Z,39.48
2023-06-04T18:20:31.977Z,40.28
2023-06-04T18:22:58.570Z,40.25
2023-06-04T18:25:25.553Z,39.90
2023-06-04T18:27:52.160Z,41.39
2023-06-04T18:30:18.827Z,41.93
2023-06-04T18:32:48.245Z,40.28
2023-06-04T18:35:15.713Z,41.43
2023-06-04T18:37:43.066Z,40.80
2023-06-04T18:40:12.345Z,41.02
2023-06-04T18:42:39.811Z,41.47
2023-06-04T18:45:10.306Z,41.18
2023-06-04T18:47:38.073Z,41.15
2023-06-04T18:50:05.518Z,41.33
2023-06-04T18:52:34.182Z,43.15
2023-06-04T18:55:01.346Z,44.38
2023-06-04T18:57:28.395Z,42.40
2023-06-04T18:59:55.109Z,43.71
2023-06-04T19:02:21.786Z,45.16
2023-06-04T19:04:48.470Z,44.55
2023-06-04T19:07:15.222Z,46.93
2023-06-04T19:09:41.826Z,45.81
2023-06-04T19:12:08.421Z,48.04
2023-06-04T19:14:35.130Z,48.14
2023-06-04T19:17:03.364Z,49.93
2023-06-04T19:19:29.937Z,51.29
2023-06-04T19:21:56.490Z,52.75
2023-06-04T19:24:23.061Z,52.37
2023-06-04T19:26:50.138Z,54.98
2023-06-04T19:29:16.790Z,54.32
2023-06-04T19:31:43.489Z,56.26
2023-06-04T19:34:10.122Z,58.26
2023-06-04T19:40:24.004Z,59.75
2023-06-04T19:46:32.004Z,63.10
2023-06-04T19:48:59.888Z,64.92
2023-06-04T19:51:28.257Z,65.93
2023-06-04T19:53:56.481Z,66.58
2023-06-04T19:56:23.366Z,66.09
2023-06-04T19:58:49.915Z,67.91
2023-06-04T20:01:17.114Z,70.34
2023-06-04T20:03:44.496Z,68.76
2023-06-04T20:06:11.463Z,72.08
2023-06-04T20:08:38.100Z,74.58
2023-06-04T20:11:09.237Z,74.60
2023-06-04T20:17:32.045Z,77.37
2023-06-04T20:19:58.662Z,77.89
2023-06-04T20:22:25.409Z,80.11
2023-06-04T20:24:52.032Z,78.72
2023-06-04T20:31:06.086Z,77.81
2023-06-04T20:33:32.707Z,79.08
2023-06-04T20:35:59.289Z,80.00
2023-06-04T20:38:25.946Z,81.87
2023-06-04T20:40:52.494Z,81.55
2023-06-04T20:43:19.130Z,82.25
2023-06-04T20:45:45.944Z,83.27
2023-06-04T20:48:12.672Z,84.67
2023-06-04T20:50:39.330Z,83.73
2023-06-04T20:53:06.029Z,84.05
2023-06-04T20:55:32.602Z,84.54
2023-06-04T20:57:59.913Z,85.93
2023-06-04T21:00:28.142Z,86.02
2023-06-04T21:02:56.244Z,86.40
2023-06-04T21:05:23.111Z,87.33
2023-06-04T21:07:49.705Z,88.87
2023-06-04T21:10:16.526Z,88.52
2023-06-04T21:12:43.103Z,90.68
2023-06-04T21:15:10.043Z,91.17
2023-06-04T21:17:36.634Z,91.38
2023-06-04T21:20:03.353Z,93.14
2023-06-04T21:22:29.908Z,93.11
2023-06-04T21:24:56.486Z,94.10
2023-06-04T21:27:23.077Z,94.44
2023-06-04T21:29:49.699Z,94.34
2023-06-04T21:32:16.277Z,96.69
2023-06-04T21:34:42.840Z,98.62
2023-06-04T21:37:09.419Z,99.28
2023-06-04T21:39:36.467Z,99.20
2023-06-04T21:42:03.055Z,100.00
2023-06-04T21:44:29.945Z,100.00
2023-06-04T21:46:57.014Z,100.00
2023-06-04T21:49:23.557Z,100.00
2023-06-04T21:51:50.279Z,100.00
2023-06-04T21:54:16.809Z,100.00
2023-06-04T21:56:43.532Z,100.00
2023-06-04T21:59:10.129Z,100.00
2023-06-04T22:01:36.733Z,100.00
2023-06-04T22:04:04.492Z,100.00
2023-06-04T22:06:31.124Z,100.00
2023-06-04T22:08:57.646Z,100.00
2023-06-04T22:11:24.237Z,100.00
2023-06-04T22:13:50.763Z,100.00
2023-06-04T22:16:17.482Z,100.00
2023-06-04T22:18:52.834Z,100.00
2023-06-04T22:21:20.937Z,100.00
2023-06-04T22:23:47.809Z,100.00
2023-06-04T22:26:28.405Z,100.00
2023-06-04T22:29:01.010Z,100.00
2023-06-04T22:31:27.566Z,100.00
2023-06-04T22:33:54.166Z,100.00
2023-06-04T22:36:20.746Z,100.00
2023-06-04T22:38:47.302Z,100.00
2023-06-04T22:41:13.889Z,100.00
2023-06-04T22:43:40.575Z,100.00
2023-06-04T22:46:07.485Z,100.00
2023-06-04T22:48:34.119Z,100.00
2023-06-04T22:51:02.854Z,100.00
2023-06-04T22:53:29.907Z,100.00
2023-06-04T22:55:56.565Z,100.00
2023-06-04T22:58:23.195Z,100.00
2023-06-04T23:00:50.518Z,100.00
2023-06-04T23:03:17.630Z,100.00
2023-06-04T23:05:44.950Z,100.00
2023-06-04T23:08:11.563Z,100.00
2023-06-04T23:10:38.112Z,100.00
2023-06-04T23:13:04.720Z,100.00
2023-06-04T23:15:31.401Z,100.00
2023-06-04T23:17:58.056Z,100.00
2023-06-04T23:20:24.683Z,100.00
2023-06-04T23:22:51.458Z,100.00
2023-06-04T23:25:18.842Z,100.00
2023-06-04T23:27:45.561Z,100.00
2023-06-04T23:30:13.194Z,100.00
2023-06-04T23:32:40.142Z,100.00
2023-06-04T23:35:07.232Z,100.00
2023-06-04T23:37:33.777Z,100.00
2023-06-04T23:40:00.481Z,100.00
2023-06-04T23:42:27.033Z,100.00
2023-06-04T23:44:53.639Z,100.00
2023-06-04T23:47:20.346Z,100.00
2023-06-04T23:49:46.917Z,100.00
2023-06-04T23:52:13.482Z,100.00
2023-06-04T23:54:40.070Z,100.00
2023-06-04T23:57:06.951Z,100.00
2023-06-04T23:59:33.922Z,100.00
